Time;durP1;ratioP1;P1;durP2;ratioP2;P2;SDS_P1;SDS_P2;PMS_P1;PMS_P2;Temp;Humidity;BMP_temperature;BMP_pressure;BME280_temperature;BME280_humidity;BME280_pressure;Samples;Min_cycle;Max_cycle;Signal;HPM_P1;HPM_P2
2021/12/24 00:00:34;;;;;;;;;;;;;;;16.26;45.35;100493.09;5005653;28;20271;-57
2021/12/24 00:03:01;;;;;;;;;;;;;;;16.27;45.10;100491.25;5013367;28;20560;-57
2021/12/24 00:05:28;;;;;;;;;;;;;;;16.25;45.42;100486.06;5007507;28;20016;-57
2021/12/24 00:07:54;;;;;;;;;;;;;;;16.26;44.64;100486.91;5006035;28;19932;-57
2021/12/24 00:10:20;;;;;;;;;;;;;;;16.25;45.37;100483.38;5008936;28;19929;-57
2021/12/24 00:12:58;;;;;;;;;;;;;;;16.25;45.42;100475.38;5007818;28;19925;-57
2021/12/24 00:18:01;;;;;;;;;;;;;;;16.26;44.84;100476.22;5008104;28;20051;-57
2021/12/24 00:37:19;;;;;;;;;;;;;;;16.25;45.68;100472.69;5013250;28;20012;-57
2021/12/24 00:39:58;;;;;;;;;;;;;;;16.26;45.16;100468.19;5008079;28;19953;-57
2021/12/24 00:42:24;;;;;;;;;;;;;;;16.25;45.87;100470.03;5008184;28;19921;-57
2021/12/24 00:44:51;;;;;;;;;;;;;;;16.25;44.82;100466.50;5008732;28;20560;-57
2021/12/24 00:47:17;;;;;;;;;;;;;;;16.24;45.67;100465.66;5007638;28;20021;-57
2021/12/24 00:49:44;;;;;;;;;;;;;;;16.26;45.69;100465.50;5010165;28;19929;-57
2021/12/24 00:55:09;;;;;;;;;;;;;;;16.25;46.07;100463.84;5011516;28;20250;-57
2021/12/24 00:57:37;;;;;;;;;;;;;;;16.26;45.04;100470.84;5008233;28;19925;-57
2021/12/24 01:00:05;;;;;;;;;;;;;;;16.24;45.72;100468.34;5007103;28;20016;-58
2021/12/24 01:02:32;;;;;;;;;;;;;;;16.25;46.09;100466.50;5010665;28;19939;-58
2021/12/24 01:04:58;;;;;;;;;;;;;;;16.24;46.08;100465.66;5008442;28;19968;-57
2021/12/24 01:07:24;;;;;;;;;;;;;;;16.25;46.06;100463.84;5009963;28;19927;-57
2021/12/24 01:09:51;;;;;;;;;;;;;;;16.24;45.59;100473.69;5011075;28;19936;-57
2021/12/24 01:12:18;;;;;;;;;;;;;;;16.24;45.88;100460.31;5012194;28;20007;-57
2021/12/24 01:14:47;;;;;;;;;;;;;;;16.25;45.64;100469.19;5006931;28;19925;-57
2021/12/24 01:19:49;;;;;;;;;;;;;;;16.25;45.84;100464.66;5006989;28;19955;-58
2021/12/24 01:25:08;;;;;;;;;;;;;;;16.25;45.42;100464.66;5007829;28;19937;-58
2021/12/24 01:28:03;;;;;;;;;;;;;;;16.26;46.19;100469.03;5009275;28;20000;-57
2021/12/24 01:39:41;;;;;;;;;;;;;;;16.26;45.65;100469.03;5008331;28;20400;-57
2021/12/24 01:44:09;;;;;;;;;;;;;;;16.27;46.12;100465.34;5007879;28;19925;-57
2021/12/24 01:46:37;;;;;;;;;;;;;;;16.27;45.65;100462.66;5004920;28;19925;-58
2021/12/24 01:49:03;;;;;;;;;;;;;;;16.27;46.38;100465.34;5006076;28;19937;-58
2021/12/24 01:51:30;;;;;;;;;;;;;;;16.28;46.51;100468.84;5007753;28;19930;-58
2021/12/24 01:53:56;;;;;;;;;;;;;;;16.28;46.19;100463.50;5008790;28;20351;-57
2021/12/24 01:56:22;;;;;;;;;;;;;;;16.28;46.65;100461.69;5005559;28;19930;-57
2021/12/24 01:58:49;;;;;;;;;;;;;;;16.28;46.82;100467.06;5009377;28;20004;-57
2021/12/24 02:01:15;;;;;;;;;;;;;;;16.29;45.94;100473.25;5007961;28;19921;-57
2021/12/24 02:03:42;;;;;;;;;;;;;;;16.29;46.84;100468.72;5008630;28;19929;-58
2021/12/24 02:06:08;;;;;;;;;;;;;;;16.29;46.03;100458.03;5006325;28;20489;-58
2021/12/24 02:08:35;;;;;;;;;;;;;;;16.30;46.05;100466.88;5010410;28;20016;-58
2021/12/24 02:11:01;;;;;;;;;;;;;;;16.31;46.10;100468.56;5008719;28;20025;-58
2021/12/24 02:13:27;;;;;;;;;;;;;;;16.32;46.95;100467.56;5007099;28;19944;-58
2021/12/24 02:29:27;;;;;;;;;;;;;;;16.32;47.20;100461.38;5008596;28;19927;-57
2021/12/24 02:31:53;;;;;;;;;;;;;;;16.33;47.37;100460.41;5006145;28;19925;-58
2021/12/24 02:34:20;;;;;;;;;;;;;;;16.33;47.04;100460.41;5007888;28;19929;-58
2021/12/24 02:36:46;;;;;;;;;;;;;;;16.33;46.43;100465.75;5008794;28;19921;-58
2021/12/24 02:39:12;;;;;;;;;;;;;;;16.32;46.79;100467.56;5007335;28;20000;-58
2021/12/24 02:41:39;;;;;;;;;;;;;;;16.33;46.29;100469.25;5003093;28;20450;-58
2021/12/24 02:44:05;;;;;;;;;;;;;;;16.33;46.43;100471.09;5007405;28;19930;-58
2021/12/24 02:47:39;;;;;;;;;;;;;;;16.33;47.24;100469.25;5010691;28;19925;-58
2021/12/24 02:53:56;;;;;;;;;;;;;;;16.32;47.35;100456.88;5011442;28;19936;-58
2021/12/24 02:54:53;;;;;;;;;;;;;;;16.32;46.75;100462.22;5010227;28;20004;-58
2021/12/24 02:57:22;;;;;;;;;;;;;;;16.33;46.91;100460.41;5011080;28;19921;-59
2021/12/24 02:59:58;;;;;;;;;;;;;;;16.33;46.63;100455.91;5008838;28;19928;-58
2021/12/24 03:02:26;;;;;;;;;;;;;;;16.33;47.46;100460.41;5008380;28;20302;-59
2021/12/24 03:04:53;;;;;;;;;;;;;;;16.33;46.68;100453.22;5009889;28;19921;-57
2021/12/24 03:07:19;;;;;;;;;;;;;;;16.32;47.51;100459.53;5009882;28;19922;-58
2021/12/24 03:09:45;;;;;;;;;;;;;;;16.33;47.35;100452.38;5010786;28;19926;-58
2021/12/24 03:12:12;;;;;;;;;;;;;;;16.33;47.30;100457.72;5009573;28;19921;-57
2021/12/24 03:14:38;;;;;;;;;;;;;;;16.33;46.65;100455.91;5008085;28;19974;-57
2021/12/24 03:17:10;;;;;;;;;;;;;;;16.33;47.43;100457.72;5007713;28;19941;-57
2021/12/24 03:19:37;;;;;;;;;;;;;;;16.34;46.79;100462.06;5009766;28;19925;-58
2021/12/24 03:24:49;;;;;;;;;;;;;;;16.34;47.70;100462.91;5010190;28;19922;-57
2021/12/24 03:27:15;;;;;;;;;;;;;;;16.34;47.21;100467.44;5009468;28;19932;-58
2021/12/24 03:29:41;;;;;;;;;;;;;;;16.34;47.23;100464.75;5007130;28;19935;-58
2021/12/24 03:32:08;;;;;;;;;;;;;;;16.34;47.30;100467.44;5010519;28;19922;-58
2021/12/24 03:34:35;;;;;;;;;;;;;;;16.32;46.83;100462.22;5008820;28;19921;-58
2021/12/24 03:37:03;;;;;;;;;;;;;;;16.34;47.92;100462.06;5009730;28;19929;-58
2021/12/24 03:39:30;;;;;;;;;;;;;;;16.34;47.67;100470.94;5007770;28;19951;-58
2021/12/24 03:41:57;;;;;;;;;;;;;;;16.33;47.71;100466.59;5008328;28;20315;-58
2021/12/24 03:44:32;;;;;;;;;;;;;;;16.33;47.31;100460.41;5009900;28;20194;-58
2021/12/24 03:49:39;;;;;;;;;;;;;;;16.33;47.03;100458.56;5012539;28;19935;-58
2021/12/24 03:54:58;;;;;;;;;;;;;;;16.34;47.59;100464.75;5011091;28;20020;-58
2021/12/24 03:57:35;;;;;;;;;;;;;;;16.33;47.69;100461.25;5006605;28;19976;-58
2021/12/24 04:00:14;;;;;;;;;;;;;;;16.33;48.00;100460.41;5012306;28;20324;-57
2021/12/24 04:02:40;;;;;;;;;;;;;;;16.35;46.75;100461.06;5008606;28;19921;-58
2021/12/24 04:05:08;;;;;;;;;;;;;;;16.34;47.65;100459.41;5011799;28;20278;-58
2021/12/24 04:07:34;;;;;;;;;;;;;;;16.33;47.75;100455.91;5010735;28;20037;-59
2021/12/24 04:10:04;;;;;;;;;;;;;;;16.34;47.70;100462.06;5008421;28;19972;-58
2021/12/24 04:12:33;;;;;;;;;;;;;;;16.34;47.42;100459.41;5009413;28;19921;-58
2021/12/24 04:14:59;;;;;;;;;;;;;;;16.33;47.66;100450.53;5005006;28;20244;-58
2021/12/24 04:17:30;;;;;;;;;;;;;;;16.33;47.57;100457.72;5010455;28;19925;-58
2021/12/24 04:25:11;;;;;;;;;;;;;;;16.34;47.09;100456.72;5007104;28;19926;-59
2021/12/24 04:27:37;;;;;;;;;;;;;;;16.33;47.64;100458.56;5009197;28;19925;-58
2021/12/24 04:30:14;;;;;;;;;;;;;;;16.33;47.84;100455.06;5008294;28;20612;-58
2021/12/24 04:35:31;;;;;;;;;;;;;;;16.33;47.15;100476.44;5009563;28;20376;-58
2021/12/24 04:38:58;;;;;;;;;;;;;;;16.33;47.73;100476.44;5009349;28;20056;-58
2021/12/24 04:51:56;;;;;;;;;;;;;;;16.34;48.22;100472.78;5008052;28;19922;-58
2021/12/24 05:02:49;;;;;;;;;;;;;;;16.59;47.22;100477.38;5008930;28;20301;-57
2021/12/24 05:05:25;;;;;;;;;;;;;;;16.68;47.54;100471.13;5008057;28;20012;-59
2021/12/24 05:10:21;;;;;;;;;;;;;;;16.84;48.11;100470.41;5008319;28;19929;-58
2021/12/24 05:12:48;;;;;;;;;;;;;;;16.93;47.74;100463.31;5007937;28;19929;-59
2021/12/24 05:15:14;;;;;;;;;;;;;;;17.00;47.53;100459.00;5005541;28;19922;-58
2021/12/24 05:23:02;;;;;;;;;;;;;;;17.18;47.46;100459.81;5005654;28;20359;-58
2021/12/24 05:25:28;;;;;;;;;;;;;;;17.22;47.53;100463.84;5004414;28;19929;-58
2021/12/24 05:27:55;;;;;;;;;;;;;;;17.24;47.32;100472.53;5007192;28;20032;-57
2021/12/24 05:30:23;;;;;;;;;;;;;;;17.27;47.25;100464.19;5005810;28;19925;-58
2021/12/24 05:32:50;;;;;;;;;;;;;;;17.28;47.51;100476.59;5005430;28;19944;-59
2021/12/24 05:35:16;;;;;;;;;;;;;;;17.28;46.76;100473.91;5001319;28;20020;-58
2021/12/24 05:37:43;;;;;;;;;;;;;;;17.29;47.17;100472.09;5000540;28;20232;-57
2021/12/24 05:40:09;;;;;;;;;;;;;;;17.29;47.17;100474.78;5003661;28;20244;-58
2021/12/24 05:42:36;;;;;;;;;;;;;;;17.28;47.18;100465.88;5003486;28;19943;-58
2021/12/24 05:45:05;;;;;;;;;;;;;;;17.27;47.13;100474.09;5005160;28;20387;-58
2021/12/24 05:47:32;;;;;;;;;;;;;;;17.26;46.91;100475.09;5006697;28;19931;-58
2021/12/24 05:49:59;;;;;;;;;;;;;;;17.24;46.93;100480.56;5006355;28;19939;-58
2021/12/24 05:52:26;;;;;;;;;;;;;;;17.23;46.68;100484.25;5003053;28;20408;-58
2021/12/24 05:54:52;;;;;;;;;;;;;;;17.22;47.16;100489.78;5005021;28;19931;-58
2021/12/24 05:57:19;;;;;;;;;;;;;;;17.20;47.17;100484.56;5008405;28;19922;-58
2021/12/24 05:59:45;;;;;;;;;;;;;;;17.19;47.07;100477.53;5004156;28;19921;-58
2021/12/24 06:02:12;;;;;;;;;;;;;;;17.20;47.14;100478.38;5003417;28;20031;-58
2021/12/24 06:04:38;;;;;;;;;;;;;;;17.21;46.87;100472.88;5007618;28;20007;-58
2021/12/24 06:07:05;;;;;;;;;;;;;;;17.26;47.15;100478.59;5003799;28;19928;-58
2021/12/24 06:09:32;;;;;;;;;;;;;;;17.33;47.56;100475.31;5008316;28;20020;-58
2021/12/24 06:11:58;;;;;;;;;;;;;;;17.38;47.49;100468.47;5006799;28;19936;-60
2021/12/24 06:14:24;;;;;;;;;;;;;;;17.44;47.25;100475.00;5003913;28;19936;-59
2021/12/24 06:17:00;;;;;;;;;;;;;;;17.49;47.27;100478.91;5007924;28;19921;-58
2021/12/24 06:19:32;;;;;;;;;;;;;;;17.55;46.89;100488.16;5003662;28;19932;-59
2021/12/24 06:21:58;;;;;;;;;;;;;;;17.60;47.29;100476.94;5008127;28;19921;-59
2021/12/24 06:24:25;;;;;;;;;;;;;;;17.65;46.93;100475.47;5011344;28;19921;-59
2021/12/24 06:26:51;;;;;;;;;;;;;;;17.69;46.53;100471.47;5008926;28;19928;-58
2021/12/24 06:29:18;;;;;;;;;;;;;;;17.74;46.51;100471.00;5009071;28;19922;-58
2021/12/24 06:31:44;;;;;;;;;;;;;;;17.78;46.91;100472.38;5008874;28;19929;-58
2021/12/24 06:34:10;;;;;;;;;;;;;;;17.83;46.66;100463.84;5011635;28;20313;-58
2021/12/24 06:36:42;;;;;;;;;;;;;;;17.85;46.21;100472.56;5006028;28;20344;-58
2021/12/24 06:39:08;;;;;;;;;;;;;;;17.89;46.50;100472.09;5008498;28;19929;-57
2021/12/24 06:41:34;;;;;;;;;;;;;;;17.93;46.50;100472.59;5008587;28;20017;-58
2021/12/24 06:44:03;;;;;;;;;;;;;;;17.97;46.73;100476.66;5009597;28;19921;-57
2021/12/24 06:46:30;;;;;;;;;;;;;;;17.98;46.59;100481.84;5007175;28;20016;-58
2021/12/24 06:48:56;;;;;;;;;;;;;;;18.02;46.29;100482.38;5007530;28;19960;-58
2021/12/24 06:51:23;;;;;;;;;;;;;;;18.04;46.38;100483.03;5008496;28;19925;-58
2021/12/24 06:53:50;;;;;;;;;;;;;;;18.07;46.28;100485.41;5004595;28;19937;-58
2021/12/24 06:56:16;;;;;;;;;;;;;;;18.09;46.37;100486.09;5008661;28;19925;-58
2021/12/24 06:58:43;;;;;;;;;;;;;;;18.13;46.58;100478.53;5007068;28;19935;-58
2021/12/24 07:01:09;;;;;;;;;;;;;;;18.15;46.49;100487.25;5010331;28;19936;-59
2021/12/24 07:03:37;;;;;;;;;;;;;;;18.16;46.24;100487.09;5008094;28;20374;-58
2021/12/24 07:06:04;;;;;;;;;;;;;;;18.19;46.23;100478.72;5005804;28;20132;-58
2021/12/24 07:08:31;;;;;;;;;;;;;;;18.21;46.52;100487.47;5009972;28;19940;-59
2021/12/24 07:10:57;;;;;;;;;;;;;;;18.23;46.49;100479.25;5013461;28;19922;-58
2021/12/24 07:13:24;;;;;;;;;;;;;;;18.24;46.16;100471.00;5009111;28;20212;-58
2021/12/24 07:15:50;;;;;;;;;;;;;;;18.28;46.47;100484.94;5010460;28;19928;-59
2021/12/24 07:18:17;;;;;;;;;;;;;;;18.29;46.48;100480.41;5006819;28;20317;-59
2021/12/24 07:20:43;;;;;;;;;;;;;;;18.32;46.19;100491.66;5001920;28;19968;-59
2021/12/24 07:23:10;;;;;;;;;;;;;;;18.33;46.38;100489.81;5006571;28;19940;-58
2021/12/24 07:25:36;;;;;;;;;;;;;;;18.34;46.54;100481.63;5006718;28;19921;-59
2021/12/24 07:28:03;;;;;;;;;;;;;;;18.37;46.51;100475.06;5004369;28;19931;-59
2021/12/24 07:30:29;;;;;;;;;;;;;;;18.38;46.12;100482.13;5010054;28;19921;-58
2021/12/24 07:32:56;;;;;;;;;;;;;;;18.40;46.57;100474.75;5010211;28;19929;-58
2021/12/24 07:35:23;;;;;;;;;;;;;;;18.42;46.19;100483.47;5010566;28;19932;-58
2021/12/24 07:37:50;;;;;;;;;;;;;;;18.44;46.28;100492.19;5008555;28;19957;-58
2021/12/24 07:40:17;;;;;;;;;;;;;;;18.45;46.50;100488.50;5009209;28;20008;-58
2021/12/24 07:42:45;;;;;;;;;;;;;;;18.46;46.02;100492.88;5008906;28;20604;-59
2021/12/24 07:45:12;;;;;;;;;;;;;;;18.48;46.32;100477.44;5010486;28;19936;-58
2021/12/24 07:47:41;;;;;;;;;;;;;;;18.50;46.07;100483.50;5013889;28;19930;-59
2021/12/24 07:52:55;;;;;;;;;;;;;;;18.54;46.05;100476.78;5009775;28;19925;-59
2021/12/24 07:55:22;;;;;;;;;;;;;;;18.56;46.42;100481.97;5009645;28;19921;-59
2021/12/24 07:57:51;;;;;;;;;;;;;;;18.57;46.34;100487.16;5003628;28;19921;-59
2021/12/24 08:00:18;;;;;;;;;;;;;;;18.58;46.58;100499.59;5010371;28;20000;-58
2021/12/24 08:02:46;;;;;;;;;;;;;;;18.61;46.41;100498.41;5010558;28;19929;-58
2021/12/24 08:05:13;;;;;;;;;;;;;;;18.61;46.49;100496.56;5012304;28;19929;-59
2021/12/24 08:07:40;;;;;;;;;;;;;;;18.63;46.61;100496.41;5007060;28;19922;-59
2021/12/24 08:10:06;;;;;;;;;;;;;;;18.64;46.20;100501.63;5012449;28;19986;-59
2021/12/24 08:12:32;;;;;;;;;;;;;;;18.66;46.26;100502.31;5007770;28;19932;-59
2021/12/24 08:14:59;;;;;;;;;;;;;;;18.66;46.59;100501.47;5007532;28;20000;-59
2021/12/24 08:17:25;;;;;;;;;;;;;;;18.68;46.52;100500.28;5012778;28;19943;-59
2021/12/24 08:19:52;;;;;;;;;;;;;;;18.70;46.30;100506.38;5008822;28;19929;-59
2021/12/24 08:22:18;;;;;;;;;;;;;;;18.71;46.00;100504.50;5011324;28;19921;-60
2021/12/24 08:24:44;;;;;;;;;;;;;;;18.71;46.10;100502.66;5009536;28;19932;-59
2021/12/24 08:27:11;;;;;;;;;;;;;;;18.73;46.42;100503.34;5008552;28;19925;-59
2021/12/24 08:29:37;;;;;;;;;;;;;;;18.74;46.57;100502.34;5007432;28;19929;-59
2021/12/24 08:32:04;;;;;;;;;;;;;;;18.75;46.30;100500.50;5008506;28;20759;-60
2021/12/24 08:34:31;;;;;;;;;;;;;;;18.78;46.10;100507.38;5005589;28;19935;-60
2021/12/24 08:36:57;;;;;;;;;;;;;;;18.79;46.12;100506.38;5008784;28;20305;-59
2021/12/24 08:39:24;;;;;;;;;;;;;;;18.79;46.05;100504.53;5006449;28;19925;-59
2021/12/24 08:41:54;;;;;;;;;;;;;;;18.80;46.19;100503.50;5003066;28;19921;-59
2021/12/24 08:44:22;;;;;;;;;;;;;;;18.81;46.20;100496.28;5008714;28;19976;-59
2021/12/24 08:46:48;;;;;;;;;;;;;;;18.82;46.10;100482.72;5008553;28;19922;-59
2021/12/24 08:49:15;;;;;;;;;;;;;;;18.84;46.26;100487.91;5004746;28;19972;-60
2021/12/24 08:51:41;;;;;;;;;;;;;;;18.84;46.15;100485.22;5007784;28;20377;-59
2021/12/24 08:54:08;;;;;;;;;;;;;;;18.85;46.25;100479.66;5006626;28;20578;-60
2021/12/24 08:56:35;;;;;;;;;;;;;;;18.87;46.13;100482.19;5007442;28;19926;-60
2021/12/24 08:59:01;;;;;;;;;;;;;;;18.87;46.16;100483.03;5008163;28;19945;-60
2021/12/24 09:01:27;;;;;;;;;;;;;;;18.88;46.00;100478.50;5007348;28;19936;-59
2021/12/24 09:03:54;;;;;;;;;;;;;;;18.89;46.19;100478.31;5008606;28;19952;-60
2021/12/24 09:06:20;;;;;;;;;;;;;;;18.89;45.94;100478.31;5008832;28;19921;-59
2021/12/24 09:08:47;;;;;;;;;;;;;;;18.89;45.86;100481.00;5006691;28;19931;-60
2021/12/24 09:11:13;;;;;;;;;;;;;;;18.90;45.82;100476.50;5009942;28;19935;-59
2021/12/24 09:13:39;;;;;;;;;;;;;;;18.89;45.94;100475.63;5005624;28;19932;-58
2021/12/24 09:16:06;;;;;;;;;;;;;;;18.88;45.92;100483.88;5010066;28;19926;-59
2021/12/24 09:18:32;;;;;;;;;;;;;;;18.86;46.22;100480.53;5010438;28;19968;-59
2021/12/24 09:21:03;;;;;;;;;;;;;;;18.85;46.42;100476.16;5007993;28;19924;-59
2021/12/24 09:23:29;;;;;;;;;;;;;;;18.83;46.38;100480.88;5010679;28;19928;-59
2021/12/24 09:26:13;;;;;;;;;;;;;;;18.81;46.71;100482.88;5009183;28;19925;-59
2021/12/24 09:28:40;;;;;;;;;;;;;;;18.80;46.64;100483.88;5000733;28;19953;-60
2021/12/24 09:31:07;;;;;;;;;;;;;;;18.77;46.76;100479.66;5009513;28;19925;-60
2021/12/24 09:33:33;;;;;;;;;;;;;;;18.77;46.51;100476.16;5009640;28;19921;-59
2021/12/24 09:35:59;;;;;;;;;;;;;;;18.77;46.50;100476.97;5007550;28;19987;-60
2021/12/24 09:38:26;;;;;;;;;;;;;;;18.78;46.71;100477.84;5006310;28;20044;-60
2021/12/24 09:40:52;;;;;;;;;;;;;;;18.77;46.75;100479.66;5005403;28;19979;-59
2021/12/24 09:43:19;;;;;;;;;;;;;;;18.77;46.61;100476.97;5004477;28;20203;-59
2021/12/24 09:45:45;;;;;;;;;;;;;;;18.78;46.88;100480.53;5007383;28;19922;-59
2021/12/24 09:48:12;;;;;;;;;;;;;;;18.76;46.72;100480.69;5006073;28;20001;-59
2021/12/24 09:50:39;;;;;;;;;;;;;;;18.75;46.85;100468.28;5007921;28;19927;-59
2021/12/24 09:53:05;;;;;;;;;;;;;;;18.74;46.82;100475.50;5004620;28;19925;-59
2021/12/24 09:55:32;;;;;;;;;;;;;;;18.72;47.22;100466.75;5005005;28;20011;-59
2021/12/24 09:57:59;;;;;;;;;;;;;;;18.71;46.74;100467.75;5005807;28;19925;-60
2021/12/24 10:00:26;;;;;;;;;;;;;;;18.70;47.04;100470.63;5006588;28;19956;-60
2021/12/24 10:02:54;;;;;;;;;;;;;;;18.66;46.97;100467.41;5007218;28;20339;-59
2021/12/24 10:05:22;;;;;;;;;;;;;;;18.64;46.86;100469.41;5005346;28;19921;-59
2021/12/24 10:07:48;;;;;;;;;;;;;;;18.61;46.74;100471.56;5004592;28;19931;-60
2021/12/24 10:10:20;;;;;;;;;;;;;;;18.58;47.01;100466.56;5004704;28;20302;-59
2021/12/24 10:12:46;;;;;;;;;;;;;;;18.56;47.10;100471.25;5002623;28;20279;-59
2021/12/24 10:15:13;;;;;;;;;;;;;;;18.53;47.07;100479.63;5009814;28;19925;-59
2021/12/24 10:17:40;;;;;;;;;;;;;;;18.49;46.89;100466.56;5005422;28;19930;-59
2021/12/24 10:20:11;;;;;;;;;;;;;;;18.47;47.09;100473.09;5004946;28;19945;-59
2021/12/24 10:22:45;;;;;;;;;;;;;;;18.45;46.97;100473.25;5007037;28;19976;-59
2021/12/24 10:25:13;;;;;;;;;;;;;;;18.43;47.04;100471.72;5003545;28;20036;-59
2021/12/24 10:27:40;;;;;;;;;;;;;;;18.40;47.17;100472.88;5002296;28;19964;-59
2021/12/24 10:30:16;;;;;;;;;;;;;;;18.37;47.36;100469.69;5007810;28;19925;-59
2021/12/24 10:32:42;;;;;;;;;;;;;;;18.36;47.32;100473.38;5004504;28;19925;-59
2021/12/24 10:35:22;;;;;;;;;;;;;;;18.33;46.95;100473.72;5005106;28;20036;-59
2021/12/24 10:38:07;;;;;;;;;;;;;;;18.32;46.79;100474.72;5002796;28;20028;-59
2021/12/24 10:40:33;;;;;;;;;;;;;;;18.30;47.39;100466.03;5006299;28;20309;-59
2021/12/24 10:42:59;;;;;;;;;;;;;;;18.31;47.04;100476.56;5003477;28;20282;-60
2021/12/24 10:45:26;;;;;;;;;;;;;;;18.35;47.28;100479.78;5004219;28;19928;-60
2021/12/24 10:47:53;;;;;;;;;;;;;;;18.38;47.55;100471.41;5007603;28;19921;-60
2021/12/24 10:55:26;;;;;;;;;;;;;;;18.53;47.50;100461.66;5006383;28;20008;-60
2021/12/24 10:57:53;;;;;;;;;;;;;;;18.58;47.52;100470.09;5008348;28;19932;-61
2021/12/24 11:00:24;;;;;;;;;;;;;;;18.63;47.31;100477.63;5005251;28;20225;-60
2021/12/24 11:02:52;;;;;;;;;;;;;;;18.67;47.18;100479.81;5007802;28;20012;-61
2021/12/24 11:05:26;;;;;;;;;;;;;;;18.71;47.13;100475.81;5005177;28;19929;-61
2021/12/24 11:07:53;;;;;;;;;;;;;;;18.75;46.78;100470.97;5009928;28;20450;-61
2021/12/24 11:10:22;;;;;;;;;;;;;;;18.80;46.76;100470.44;5009802;28;20214;-61
2021/12/24 11:12:50;;;;;;;;;;;;;;;18.82;47.25;100469.28;5010439;28;20020;-61
2021/12/24 11:15:28;;;;;;;;;;;;;;;18.87;46.97;100471.47;5011211;28;19929;-61
2021/12/24 11:17:59;;;;;;;;;;;;;;;18.88;47.03;100473.97;5010130;28;19928;-61
2021/12/24 11:20:26;;;;;;;;;;;;;;;18.91;47.08;100478.19;5004566;28;20345;-61
2021/12/24 11:23:06;;;;;;;;;;;;;;;18.94;47.27;100475.16;5011857;28;19996;-60
2021/12/24 11:25:37;;;;;;;;;;;;;;;18.96;46.84;100473.13;5008964;28;20015;-61
2021/12/24 11:28:04;;;;;;;;;;;;;;;18.99;46.61;100470.13;5001966;28;21093;-60
2021/12/24 11:30:32;;;;;;;;;;;;;;;19.02;47.04;100468.94;5004545;28;20016;-61
2021/12/24 11:32:59;;;;;;;;;;;;;;;19.05;47.05;100476.66;5007355;28;20046;-61
2021/12/24 11:35:26;;;;;;;;;;;;;;;19.05;46.69;100468.59;5003619;28;19935;-61
2021/12/24 11:37:53;;;;;;;;;;;;;;;19.06;46.71;100471.13;5010621;28;19922;-60
2021/12/24 11:40:21;;;;;;;;;;;;;;;19.08;46.49;100468.25;5007353;28;19976;-61
2021/12/24 11:42:51;;;;;;;;;;;;;;;19.08;46.62;100466.41;5005771;28;20369;-61
2021/12/24 11:45:22;;;;;;;;;;;;;;;19.08;46.82;100463.72;5001570;28;19925;-60
2021/12/24 11:47:50;;;;;;;;;;;;;;;19.06;47.26;100455.00;5007846;28;19921;-61
2021/12/24 11:50:16;;;;;;;;;;;;;;;19.06;46.49;100460.38;5005789;28;19929;-61
2021/12/24 11:52:45;;;;;;;;;;;;;;;19.05;46.42;100460.53;5007706;28;19925;-61
2021/12/24 11:55:11;;;;;;;;;;;;;;;19.04;46.72;100456.16;5004219;28;19926;-60
2021/12/24 11:57:48;;;;;;;;;;;;;;;19.02;46.86;100452.84;5004896;28;19921;-61
2021/12/24 12:00:20;;;;;;;;;;;;;;;18.99;47.39;100451.31;5009316;28;20158;-60
2021/12/24 12:02:46;;;;;;;;;;;;;;;18.95;46.45;100453.50;5004206;28;19929;-60
2021/12/24 12:05:15;;;;;;;;;;;;;;;18.93;46.86;100452.81;5004230;28;19980;-60
2021/12/24 12:07:42;;;;;;;;;;;;;;;18.89;47.03;100451.47;5006543;28;20210;-60
2021/12/24 12:10:09;;;;;;;;;;;;;;;18.86;46.85;100448.31;5009088;28;19921;-60
2021/12/24 12:12:40;;;;;;;;;;;;;;;18.84;47.19;100453.00;5006558;28;19932;-59
2021/12/24 12:15:26;;;;;;;;;;;;;;;18.80;47.04;100454.34;5004402;28;19921;-59
2021/12/24 12:17:54;;;;;;;;;;;;;;;18.76;46.96;100445.78;5006149;28;19930;-59
2021/12/24 12:20:55;;;;;;;;;;;;;;;18.73;46.94;100452.34;5009134;28;20019;-59
2021/12/24 12:23:51;;;;;;;;;;;;;;;18.71;47.47;100450.81;5004060;28;20024;-59
2021/12/24 12:26:37;;;;;;;;;;;;;;;18.67;47.12;100466.38;5011537;28;20250;-59
2021/12/24 12:29:19;;;;;;;;;;;;;;;18.64;47.27;100458.66;5004727;28;20324;-59
2021/12/24 12:31:46;;;;;;;;;;;;;;;18.61;47.14;100463.53;5004968;28;20030;-59
2021/12/24 12:34:31;;;;;;;;;;;;;;;18.58;47.36;100462.03;5002867;28;19925;-59
2021/12/24 12:37:16;;;;;;;;;;;;;;;18.55;47.57;100465.03;5007310;28;19928;-59
2021/12/24 12:39:43;;;;;;;;;;;;;;;18.53;47.06;100466.19;5006954;28;20033;-59
2021/12/24 12:42:10;;;;;;;;;;;;;;;18.50;47.13;100470.06;5001060;28;19921;-59
2021/12/24 12:44:39;;;;;;;;;;;;;;;18.48;47.39;100472.06;5004012;28;19921;-59
2021/12/24 12:47:23;;;;;;;;;;;;;;;18.47;47.41;100481.13;5003584;28;20032;-59
2021/12/24 12:50:09;;;;;;;;;;;;;;;18.43;47.25;100469.06;5006577;28;20020;-59
2021/12/24 12:52:36;;;;;;;;;;;;;;;18.40;47.50;100474.75;5008981;28;20038;-59
2021/12/24 12:55:03;;;;;;;;;;;;;;;18.38;47.51;100466.88;5009863;28;19996;-59
2021/12/24 12:57:30;;;;;;;;;;;;;;;18.36;47.37;100474.22;5004113;28;19932;-59
2021/12/24 13:00:17;;;;;;;;;;;;;;;18.35;47.90;100466.34;5006775;28;19932;-59
2021/12/24 13:02:56;;;;;;;;;;;;;;;18.31;47.86;100465.00;5008410;28;19925;-59
2021/12/24 13:05:24;;;;;;;;;;;;;;;18.29;47.49;100465.19;5002542;28;20284;-59
2021/12/24 13:07:51;;;;;;;;;;;;;;;18.27;47.88;100467.19;5005777;28;20012;-59
2021/12/24 13:10:18;;;;;;;;;;;;;;;18.25;47.69;100461.13;5001566;28;19936;-59
2021/12/24 13:12:45;;;;;;;;;;;;;;;18.23;48.00;100463.97;5006345;28;19976;-59
2021/12/24 13:15:16;;;;;;;;;;;;;;;18.21;47.68;100454.41;5004327;28;20271;-59
2021/12/24 13:17:48;;;;;;;;;;;;;;;18.21;47.91;100457.09;5004512;28;20015;-59
2021/12/24 13:22:43;;;;;;;;;;;;;;;18.18;47.82;100460.97;5006696;28;19967;-59
2021/12/24 13:25:13;;;;;;;;;;;;;;;18.16;47.52;100457.59;5001127;28;19921;-58
2021/12/24 13:27:39;;;;;;;;;;;;;;;18.16;47.63;100456.75;5002362;28;20016;-58
2021/12/24 13:30:06;;;;;;;;;;;;;;;18.14;47.97;100458.78;5003720;28;20036;-59
2021/12/24 13:32:40;;;;;;;;;;;;;;;18.14;47.73;100475.69;5005087;28;19932;-59
2021/12/24 13:35:06;;;;;;;;;;;;;;;18.13;48.05;100478.53;5009272;28;19929;-59
2021/12/24 13:37:33;;;;;;;;;;;;;;;18.11;47.77;100473.34;5003621;28;20573;-59
2021/12/24 13:40:00;;;;;;;;;;;;;;;18.10;47.90;100477.03;5002375;28;19922;-59
2021/12/24 13:42:26;;;;;;;;;;;;;;;18.10;48.21;100463.63;5004683;28;19929;-59
2021/12/24 13:45:01;;;;;;;;;;;;;;;18.09;48.10;100466.44;4998589;28;20233;-58
2021/12/24 13:55:32;;;;;;;;;;;;;;;18.04;48.27;100468.78;5004925;28;19925;-59
2021/12/24 13:58:00;;;;;;;;;;;;;;;18.02;48.09;100473.47;5004128;28;19944;-58
2021/12/24 14:00:28;;;;;;;;;;;;;;;18.02;48.08;100473.47;5005238;28;20012;-59
2021/12/24 14:02:56;;;;;;;;;;;;;;;18.00;48.09;100473.63;5003464;28;20005;-59
2021/12/24 14:05:24;;;;;;;;;;;;;;;17.99;47.96;100477.31;5001540;28;19944;-58
2021/12/24 14:08:03;;;;;;;;;;;;;;;17.98;47.95;100471.13;5004510;28;19961;-58
2021/12/24 14:10:30;;;;;;;;;;;;;;;17.97;48.00;100465.94;5003623;28;20465;-58
2021/12/24 14:13:04;;;;;;;;;;;;;;;17.96;48.01;100472.28;5005477;28;20298;-58
2021/12/24 14:15:31;;;;;;;;;;;;;;;17.94;48.22;100475.13;5006930;28;20426;-59
2021/12/24 14:18:22;;;;;;;;;;;;;;;17.94;47.92;100471.63;5003855;28;19936;-59
2021/12/24 14:23:29;;;;;;;;;;;;;;;17.92;48.07;100478.97;5000429;28;19925;-58
2021/12/24 14:25:57;;;;;;;;;;;;;;;17.90;48.18;100479.13;5003605;28;19936;-58
2021/12/24 14:28:24;;;;;;;;;;;;;;;17.90;48.31;100473.78;5002120;28;20269;-59
2021/12/24 14:31:05;;;;;;;;;;;;;;;17.93;48.19;100483.31;5006233;28;19931;-58
2021/12/24 14:33:38;;;;;;;;;;;;;;;17.97;48.22;100479.34;5003031;28;19921;-58
2021/12/24 14:36:07;;;;;;;;;;;;;;;18.02;48.25;100479.69;5003568;28;19929;-59
2021/12/24 14:38:34;;;;;;;;;;;;;;;18.08;48.64;100481.69;5004288;28;19922;-59
2021/12/24 14:41:00;;;;;;;;;;;;;;;18.15;48.28;100479.22;5005725;28;19948;-59
2021/12/24 14:43:32;;;;;;;;;;;;;;;18.22;48.75;100478.41;5005976;28;19932;-59